Columbus Airport

Airport
ICAO code: 
KCSG
Summary
ICAO Region: 
NAM
Territory: 
Location: 
Columbus, Georgia,
Elevation: 
397 ft
Coordinates: 
Aerial View: 
32° 30' 53.616" N, 84° 56' 25.902" W
Metar
Observation
KCSG 040751Z AUTO 00000KT 8SM CLR 08/07 A3009 RMK AO2 SLP186 T00830067
Station
Columbus, Columbus Metropolitan Airport
Date/Time
2021-12-04 07:51:00
Wind direction
Wind speed
00 kts
Lowest cloud amount
n/a
Temperature
8.3°C
Dew point
6.7°C
Humidity
89%
Weather condition
n/a

Description

Columbus Airport is a public use airport located 6 km northeast of the central business district of Columbus, a city in Muscogee County, Georgia.

Climatology

Humid “subtropical” climate (Köppen climate classification Cfa) - characterized by hot, humid summers and cool winters. Significant amounts of precipitation occur in all seasons in most areas.

Runways

Designator Length Width Surface Rops
13/31 1218 46 ASP Yes/Yes
6/24 2133 46 ASP Yes/Yes
Airport map: 
Aerial View: 

SKYbrary Partners:

Safety knowledge contributed by: